Time;durP1;ratioP1;P1;durP2;ratioP2;P2;SDS_P1;SDS_P2;PMS_P1;PMS_P2;Temp;Humidity;BMP_temperature;BMP_pressure;BME280_temperature;BME280_humidity;BME280_pressure;Samples;Min_cycle;Max_cycle;Signal;HPM_P1;HPM_P2
2022/02/03 00:01:26;;;;;;;11.60;9.15;;;8.10;99.90;;;;;;5075531;28;20204;-69
2022/02/03 00:04:02;;;;;;;12.90;9.30;;;8.10;99.90;;;;;;5074014;28;20230;-69
2022/02/03 00:06:45;;;;;;;9.73;8.80;;;8.10;99.90;;;;;;5074761;28;20615;-69
2022/02/03 00:17:04;;;;;;;9.55;8.60;;;8.10;99.90;;;;;;5075264;28;20188;-70
2022/02/03 00:22:46;;;;;;;8.00;7.30;;;8.20;99.90;;;;;;5074234;28;20195;-70
2022/02/03 00:25:18;;;;;;;9.15;7.40;;;8.10;99.90;;;;;;5074026;28;20215;-70
2022/02/03 00:27:54;;;;;;;7.53;6.45;;;8.20;99.90;;;;;;5074199;28;20256;-70
2022/02/03 00:30:32;;;;;;;7.53;6.70;;;8.10;99.90;;;;;;5072571;28;20199;-70
2022/02/03 00:48:15;;;;;;;9.52;7.78;;;8.20;99.90;;;;;;5073267;28;20188;-69
2022/02/03 00:49:44;;;;;;;7.63;6.93;;;8.20;99.90;;;;;;5073715;28;20684;-70
2022/02/03 00:52:11;;;;;;;6.85;6.20;;;8.20;99.90;;;;;;5073904;28;20268;-69
2022/02/03 00:54:37;;;;;;;8.13;7.32;;;8.20;99.90;;;;;;5073476;28;20199;-69
2022/02/03 00:57:07;;;;;;;7.43;6.82;;;8.10;99.90;;;;;;5073743;28;20195;-70
2022/02/03 00:59:39;;;;;;;9.55;7.72;;;8.10;99.90;;;;;;5073380;28;20243;-70
2022/02/03 01:02:16;;;;;;;9.75;7.90;;;8.00;99.90;;;;;;5073684;28;20215;-70
2022/02/03 01:04:43;;;;;;;8.45;7.40;;;8.00;99.90;;;;;;5073959;28;20180;-70
2022/02/03 01:07:13;;;;;;;7.18;6.47;;;8.00;99.90;;;;;;5073875;28;20585;-70
2022/02/03 01:09:49;;;;;;;9.18;8.25;;;8.00;99.90;;;;;;5073640;28;20212;-68
2022/02/03 01:12:28;;;;;;;7.55;6.88;;;8.00;99.90;;;;;;5073775;28;20226;-68
2022/02/03 01:15:09;;;;;;;7.95;6.30;;;8.00;99.90;;;;;;5073618;28;20252;-68
2022/02/03 01:18:20;;;;;;;8.98;6.45;;;8.00;99.90;;;;;;5073626;28;20219;-68
2022/02/03 01:34:32;;;;;;;8.75;6.38;;;8.00;99.90;;;;;;5073379;28;20192;-68
2022/02/03 01:45:19;;;;;;;5.35;4.85;;;8.10;99.90;;;;;;5072403;28;20245;-68
2022/02/03 01:47:55;;;;;;;5.35;4.95;;;8.20;99.90;;;;;;5073599;28;20644;-72
2022/02/03 01:52:50;;;;;;;6.05;5.50;;;8.20;99.90;;;;;;5077404;28;20223;-69
2022/02/03 01:55:26;;;;;;;5.75;5.15;;;8.20;99.90;;;;;;5077155;28;20261;-69
2022/02/03 01:58:01;;;;;;;7.45;5.60;;;8.20;99.90;;;;;;5077424;28;20652;-69
2022/02/03 02:00:37;;;;;;;8.68;5.00;;;8.10;99.90;;;;;;5077520;28;20223;-70
2022/02/03 02:03:09;;;;;;;5.47;4.90;;;8.10;99.90;;;;;;5077326;28;20272;-70
2022/02/03 02:05:53;;;;;;;5.82;5.30;;;8.10;99.90;;;;;;5077695;28;20260;-70
2022/02/03 02:08:58;;;;;;;5.57;4.90;;;8.10;99.90;;;;;;5077871;28;20241;-70
2022/02/03 02:11:42;;;;;;;6.05;5.45;;;8.10;99.90;;;;;;5077503;28;20188;-70
2022/02/03 02:40:04;;;;;;;7.00;6.30;;;7.90;99.90;;;;;;5076698;28;20264;-70
2022/02/03 02:42:46;;;;;;;8.85;6.60;;;7.90;99.90;;;;;;5076417;28;20192;-70
2022/02/03 02:45:17;;;;;;;7.00;6.30;;;7.90;99.90;;;;;;5076516;28;20192;-70
2022/02/03 02:48:09;;;;;;;7.05;5.65;;;7.90;99.90;;;;;;5076227;28;20589;-70
2022/02/03 02:51:02;;;;;;;6.40;5.80;;;7.90;99.90;;;;;;5076449;28;20206;-70
2022/02/03 02:57:21;;;;;;;10.55;7.93;;;7.90;99.90;;;;;;5067852;28;20709;-71
2022/02/03 03:00:43;;;;;;;8.20;7.07;;;7.90;99.90;;;;;;5074485;28;20778;-71
2022/02/03 03:33:46;;;;;;;10.30;8.82;;;7.90;99.90;;;;;;5075959;28;20208;-70
2022/02/03 03:36:17;;;;;;;14.13;10.63;;;7.90;99.90;;;;;;5074232;28;20218;-70
2022/02/03 03:38:47;;;;;;;10.68;9.27;;;7.90;99.90;;;;;;5073965;28;20702;-70
2022/02/03 03:41:18;;;;;;;9.82;8.82;;;7.90;99.90;;;;;;5075607;28;20555;-70
2022/02/03 03:44:01;;;;;;;10.88;9.73;;;7.90;99.90;;;;;;5074261;28;20204;-71
2022/02/03 03:46:36;;;;;;;12.10;9.30;;;7.90;99.90;;;;;;5075648;28;20211;-71
2022/02/03 03:49:07;;;;;;;11.68;8.93;;;7.90;99.90;;;;;;5075806;28;20199;-71
2022/02/03 03:51:45;;;;;;;10.00;8.90;;;7.90;99.90;;;;;;5075576;28;20200;-71
2022/02/03 03:54:29;;;;;;;12.05;9.80;;;7.90;99.90;;;;;;5073822;28;20203;-71
2022/02/03 03:57:12;;;;;;;9.82;8.40;;;7.90;99.90;;;;;;5075002;28;20200;-71
2022/02/03 04:37:25;;;;;;;13.40;9.70;;;7.80;99.90;;;;;;5075091;28;20203;-70
2022/02/03 05:01:54;;;;;;;18.55;11.20;;;7.80;99.90;;;;;;5074141;28;20239;-70
2022/02/03 05:05:19;;;;;;;12.52;10.35;;;7.80;99.90;;;;;;5074736;28;20287;-72
2022/02/03 05:20:17;;;;;;;12.38;9.65;;;7.70;99.90;;;;;;5073872;28;20176;-70
2022/02/03 05:35:32;;;;;;;14.68;10.90;;;7.70;99.90;;;;;;5073631;28;20191;-70
2022/02/03 05:44:11;;;;;;;15.05;11.32;;;7.60;99.90;;;;;;5072928;28;20206;-71
2022/02/03 06:05:22;;;;;;;16.45;11.43;;;7.40;99.90;;;;;;5073422;28;20191;-70
2022/02/03 06:07:57;;;;;;;16.98;12.82;;;7.40;99.90;;;;;;5073935;28;20223;-69
2022/02/03 06:13:27;;;;;;;17.00;12.07;;;7.50;99.90;;;;;;5074491;28;20208;-70
2022/02/03 06:21:40;;;;;;;19.23;12.93;;;7.50;99.90;;;;;;5075320;28;20185;-70
2022/02/03 06:24:18;;;;;;;17.50;12.18;;;7.40;99.90;;;;;;5072588;28;20249;-69
2022/02/03 06:29:35;;;;;;;17.92;11.77;;;7.40;99.90;;;;;;5073059;28;20189;-68
2022/02/03 06:32:02;;;;;;;15.02;12.23;;;7.40;99.90;;;;;;5072947;28;20215;-68
2022/02/03 06:34:28;;;;;;;20.85;11.80;;;7.50;99.90;;;;;;5072963;28;20204;-69
2022/02/03 06:36:55;;;;;;;18.90;12.23;;;7.50;99.90;;;;;;5072906;28;20192;-69
2022/02/03 06:39:27;;;;;;;16.50;11.70;;;7.40;99.90;;;;;;5076573;28;20204;-69
2022/02/03 06:41:58;;;;;;;20.08;12.45;;;7.40;99.90;;;;;;5074949;28;20196;-69
2022/02/03 06:44:34;;;;;;;14.05;11.38;;;7.40;99.90;;;;;;5076441;28;20229;-69
2022/02/03 06:47:08;;;;;;;18.73;11.55;;;7.40;99.90;;;;;;5074705;28;20701;-70
2022/02/03 06:52:10;;;;;;;16.40;12.18;;;7.30;99.90;;;;;;5076542;28;20204;-70
2022/02/03 06:57:34;;;;;;;16.85;11.40;;;7.30;99.90;;;;;;5076592;28;20184;-70
2022/02/03 07:00:09;;;;;;;15.98;10.65;;;7.20;99.90;;;;;;5074472;28;20228;-70
2022/02/03 07:02:40;;;;;;;17.90;11.82;;;7.20;99.90;;;;;;5075749;28;20684;-70
2022/02/03 07:05:07;;;;;;;16.88;10.45;;;7.20;99.90;;;;;;5076463;28;20281;-70
2022/02/03 07:07:38;;;;;;;17.23;10.13;;;7.20;99.90;;;;;;5076143;28;20223;-70
2022/02/03 07:10:09;;;;;;;19.40;11.80;;;7.20;99.90;;;;;;5076079;28;20260;-70
2022/02/03 07:12:35;;;;;;;19.75;13.10;;;7.20;99.90;;;;;;5077101;28;20220;-70
2022/02/03 07:15:04;;;;;;;16.90;11.23;;;7.20;99.90;;;;;;5082028;28;20286;-70
2022/02/03 07:17:33;;;;;;;29.20;15.75;;;7.20;99.90;;;;;;5080101;28;20675;-71
2022/02/03 07:20:02;;;;;;;19.20;12.77;;;7.10;99.90;;;;;;5079817;28;20199;-71
2022/02/03 07:22:29;;;;;;;17.13;11.50;;;7.10;99.90;;;;;;5080400;28;20349;-70
2022/02/03 07:24:57;;;;;;;15.18;10.80;;;7.00;99.90;;;;;;5085283;28;20579;-71
2022/02/03 07:27:24;;;;;;;17.17;11.50;;;7.10;99.90;;;;;;5080250;28;20200;-71
2022/02/03 07:29:51;;;;;;;19.80;13.48;;;7.00;99.90;;;;;;5078776;28;20287;-71
2022/02/03 07:32:18;;;;;;;17.58;12.35;;;7.00;99.90;;;;;;5078108;28;20208;-70
2022/02/03 07:34:45;;;;;;;15.52;11.50;;;7.00;99.90;;;;;;5080317;28;20283;-71
2022/02/03 07:37:11;;;;;;;17.55;12.30;;;7.00;99.90;;;;;;5081404;28;20663;-70
2022/02/03 07:39:39;;;;;;;14.93;10.55;;;7.00;99.90;;;;;;5085371;28;20259;-71
2022/02/03 07:42:06;;;;;;;16.10;11.27;;;7.10;99.90;;;;;;5086538;28;20682;-71
2022/02/03 07:44:32;;;;;;;15.52;11.85;;;7.10;99.90;;;;;;5086692;28;20226;-71
2022/02/03 07:46:59;;;;;;;17.00;12.63;;;7.10;99.90;;;;;;5067476;28;20218;-70
2022/02/03 07:49:25;;;;;;;16.15;11.00;;;7.20;99.90;;;;;;5082925;28;20286;-70
2022/02/03 07:51:51;;;;;;;15.15;10.93;;;7.30;99.90;;;;;;5081596;28;20204;-71
2022/02/03 07:54:18;;;;;;;12.82;9.48;;;7.40;99.90;;;;;;5080119;28;20216;-71
2022/02/03 07:56:44;;;;;;;12.30;10.30;;;7.50;99.90;;;;;;5081445;28;20200;-71
2022/02/03 07:59:11;;;;;;;10.88;8.85;;;7.60;99.90;;;;;;5079563;28;20750;-71
2022/02/03 08:01:37;;;;;;;12.50;10.00;;;7.60;99.90;;;;;;5079868;28;20337;-71
2022/02/03 08:04:06;;;;;;;12.35;10.05;;;7.70;99.90;;;;;;5081998;28;20282;-72
2022/02/03 08:06:37;;;;;;;12.68;9.45;;;7.70;99.90;;;;;;5084293;28;20224;-71
2022/02/03 08:09:08;;;;;;;11.43;9.75;;;7.70;99.90;;;;;;5082548;28;20208;-71
2022/02/03 08:11:40;;;;;;;11.60;8.80;;;7.80;99.90;;;;;;5079691;28;20242;-71
2022/02/03 08:16:56;;;;;;;13.68;10.85;;;7.80;99.90;;;;;;5078737;28;20639;-72
2022/02/03 08:22:01;;;;;;;13.90;12.05;;;7.80;99.90;;;;;;5080530;28;20286;-71
2022/02/03 08:25:05;;;;;;;18.80;12.35;;;7.80;99.90;;;;;;5078537;28;20203;-72
2022/02/03 08:32:42;;;;;;;21.25;16.27;;;7.70;99.90;;;;;;5084254;28;20191;-72
2022/02/03 08:35:20;;;;;;;21.80;16.80;;;7.80;99.90;;;;;;5081458;28;20213;-72
2022/02/03 08:37:58;;;;;;;23.17;17.33;;;7.80;99.90;;;;;;5078480;28;20204;-72
2022/02/03 08:41:10;;;;;;;21.08;15.95;;;7.80;99.90;;;;;;5082971;28;20207;-72
2022/02/03 08:43:12;;;;;;;17.20;15.35;;;7.80;99.90;;;;;;5072580;28;20566;-72
2022/02/03 08:45:39;;;;;;;19.95;16.48;;;7.80;99.90;;;;;;5082537;28;20271;-72
2022/02/03 08:48:06;;;;;;;20.25;15.60;;;7.90;99.90;;;;;;5077234;28;20200;-72
2022/02/03 08:50:36;;;;;;;18.55;16.48;;;8.00;99.90;;;;;;5081423;28;20214;-72
2022/02/03 08:56:00;;;;;;;15.88;14.15;;;8.00;99.90;;;;;;5084229;28;20180;-71
2022/02/03 10:00:45;;;;;;;9.50;8.60;;;9.10;99.90;;;;;;5078239;28;20235;-72
2022/02/03 10:03:16;;;;;;;9.15;8.20;;;9.00;99.90;;;;;;5078216;28;20287;-72
2022/02/03 10:08:28;;;;;;;12.23;8.75;;;9.20;99.90;;;;;;5081610;28;20606;-72
2022/02/03 10:11:13;;;;;;;9.50;8.25;;;9.20;99.90;;;;;;5076888;28;20291;-72
2022/02/03 10:13:57;;;;;;;9.88;8.88;;;9.20;99.90;;;;;;5080425;28;20223;-71
2022/02/03 10:16:46;;;;;;;10.15;8.55;;;9.30;99.90;;;;;;5082483;28;20279;-71
2022/02/03 10:19:16;;;;;;;8.73;7.93;;;9.20;99.90;;;;;;5080999;28;20188;-72
2022/02/03 10:21:47;;;;;;;10.80;8.88;;;9.10;99.90;;;;;;5079972;28;20196;-70
2022/02/03 10:24:18;;;;;;;8.35;7.57;;;9.20;99.90;;;;;;5080873;28;20287;-71
2022/02/03 10:26:49;;;;;;;9.25;6.95;;;9.20;99.90;;;;;;5081392;28;20196;-71
2022/02/03 10:29:44;;;;;;;10.18;7.93;;;9.10;99.90;;;;;;5080348;28;20188;-72
2022/02/03 10:32:11;;;;;;;10.93;9.80;;;9.20;99.90;;;;;;5079510;28;20200;-72
2022/02/03 10:34:44;;;;;;;8.32;7.63;;;9.30;99.90;;;;;;5079347;28;20212;-71
2022/02/03 10:37:25;;;;;;;8.93;8.13;;;9.20;99.90;;;;;;5083146;28;20207;-72
2022/02/03 10:40:24;;;;;;;9.38;8.57;;;9.30;99.90;;;;;;5081919;28;20196;-71
2022/02/03 10:46:37;;;;;;;8.15;7.45;;;9.00;99.90;;;;;;5083672;28;20188;-71
2022/02/03 10:49:31;;;;;;;8.73;7.25;;;9.10;99.90;;;;;;5078906;28;20207;-70
2022/02/03 10:54:03;;;;;;;7.95;7.22;;;9.00;99.90;;;;;;5082622;28;20314;-71
2022/02/03 11:02:06;;;;;;;7.43;6.72;;;9.10;99.90;;;;;;5083225;28;20258;-71
2022/02/03 11:05:14;;;;;;;6.00;5.47;;;9.10;99.90;;;;;;5082525;28;20204;-71
2022/02/03 11:07:36;;;;;;;7.15;6.45;;;9.20;99.90;;;;;;5083790;28;20223;-71
2022/02/03 11:10:15;;;;;;;6.38;5.80;;;9.10;99.90;;;;;;5083686;28;20329;-71
2022/02/03 11:12:45;;;;;;;7.22;5.72;;;9.20;99.90;;;;;;5084102;28;20271;-70
2022/02/03 11:15:11;;;;;;;6.97;6.32;;;9.20;99.90;;;;;;5081772;28;20224;-72
2022/02/03 11:17:39;;;;;;;6.45;5.88;;;9.10;99.90;;;;;;5083656;28;20674;-71
2022/02/03 11:20:07;;;;;;;8.57;5.80;;;9.30;99.90;;;;;;5083530;28;20207;-72
2022/02/03 11:44:14;;;;;;;5.22;4.80;;;9.30;99.90;;;;;;5083301;28;20184;-71
2022/02/03 11:46:49;;;;;;;9.90;5.72;;;9.40;99.90;;;;;;5082159;28;20579;-71
2022/02/03 11:50:14;;;;;;;5.40;5.00;;;9.50;99.90;;;;;;5081941;28;20204;-71
2022/02/03 12:03:09;;;;;;;4.18;3.88;;;9.50;99.90;;;;;;5076913;28;20185;-71
2022/02/03 12:21:27;;;;;;;4.53;3.00;;;9.40;99.90;;;;;;5075877;28;20596;-70
2022/02/03 12:24:15;;;;;;;3.55;3.35;;;9.60;99.90;;;;;;5074858;28;20278;-71
2022/02/03 12:26:53;;;;;;;3.35;3.15;;;9.50;99.90;;;;;;5075246;28;20200;-70
2022/02/03 12:29:34;;;;;;;6.88;3.20;;;9.50;99.90;;;;;;5073311;28;20655;-69
2022/02/03 12:39:52;;;;;;;3.58;2.95;;;9.90;99.90;;;;;;5073964;28;20203;-69
2022/02/03 12:42:31;;;;;;;4.30;3.92;;;10.00;99.90;;;;;;5074104;28;20176;-70
2022/02/03 12:45:17;;;;;;;4.10;3.80;;;9.80;99.90;;;;;;5074666;28;20188;-70
2022/02/03 12:47:48;;;;;;;4.43;4.03;;;9.90;99.90;;;;;;5074096;28;20192;-69
2022/02/03 12:50:26;;;;;;;3.83;3.47;;;9.80;99.90;;;;;;5073773;28;20585;-69
2022/02/03 12:52:54;;;;;;;6.22;3.60;;;9.70;99.90;;;;;;5075525;28;20200;-70
2022/02/03 12:55:25;;;;;;;8.15;4.07;;;9.80;99.90;;;;;;5074134;28;20284;-69
2022/02/03 12:57:51;;;;;;;4.20;3.60;;;9.80;99.90;;;;;;5073908;28;20188;-69
2022/02/03 13:00:39;;;;;;;4.45;3.63;;;10.00;99.90;;;;;;5073566;28;20227;-69
2022/02/03 13:03:09;;;;;;;3.70;3.50;;;10.30;99.90;;;;;;5073883;28;20233;-69
2022/02/03 13:05:40;;;;;;;8.93;3.60;;;10.10;99.90;;;;;;5073760;28;20200;-71
2022/02/03 13:08:09;;;;;;;4.03;3.20;;;10.00;99.90;;;;;;5072574;28;20211;-69
2022/02/03 13:10:38;;;;;;;3.60;3.30;;;9.90;99.90;;;;;;5074185;28;20200;-71
2022/02/03 13:13:34;;;;;;;3.33;3.13;;;9.80;99.90;;;;;;5074023;28;20651;-69
2022/02/03 13:16:09;;;;;;;3.40;2.80;;;9.80;99.90;;;;;;5074342;28;20583;-69
2022/02/03 13:18:42;;;;;;;3.97;3.65;;;9.90;99.90;;;;;;5074398;28;20180;-70
2022/02/03 13:21:34;;;;;;;3.47;2.85;;;9.80;99.90;;;;;;5074359;28;20196;-69
2022/02/03 13:24:21;;;;;;;7.45;3.30;;;9.80;99.90;;;;;;5073013;28;20720;-70
2022/02/03 13:27:00;;;;;;;2.60;2.40;;;9.80;99.90;;;;;;5074392;28;20196;-69
2022/02/03 13:29:56;;;;;;;2.35;2.15;;;9.70;99.90;;;;;;5072967;28;20203;-70
2022/02/03 13:32:27;;;;;;;2.80;2.60;;;9.80;99.90;;;;;;5072439;28;20665;-70
2022/02/03 13:35:16;;;;;;;2.30;2.03;;;9.90;99.90;;;;;;5057066;28;20624;-70
2022/02/03 13:38:24;;;;;;;3.03;2.70;;;10.00;99.90;;;;;;5072965;28;20789;-71
2022/02/03 13:40:43;;;;;;;7.37;3.57;;;9.80;99.90;;;;;;5073158;28;21313;-70
2022/02/03 13:43:13;;;;;;;3.78;3.47;;;9.80;99.90;;;;;;5073480;28;20612;-70
2022/02/03 13:45:43;;;;;;;3.33;2.58;;;9.70;99.90;;;;;;5073834;28;20203;-70
2022/02/03 13:48:17;;;;;;;3.00;2.70;;;9.70;99.90;;;;;;5077757;28;20207;-69
2022/02/03 13:50:53;;;;;;;5.28;3.60;;;9.70;99.90;;;;;;5077854;28;20569;-69
2022/02/03 13:53:27;;;;;;;3.22;3.03;;;9.70;99.90;;;;;;5077421;28;20207;-69
2022/02/03 14:21:00;;;;;;;8.65;4.85;;;9.70;99.90;;;;;;5080339;28;20191;-71
2022/02/03 14:28:33;;;;;;;3.10;2.80;;;9.60;99.90;;;;;;5081701;28;20188;-70
2022/02/03 14:31:04;;;;;;;8.63;4.78;;;9.60;99.90;;;;;;5079932;28;20589;-71
2022/02/03 14:33:35;;;;;;;3.55;3.35;;;9.60;99.90;;;;;;5077795;28;20211;-71
2022/02/03 14:36:08;;;;;;;9.88;4.43;;;9.50;99.90;;;;;;5076630;28;20188;-72
2022/02/03 14:38:52;;;;;;;4.47;4.00;;;9.60;99.90;;;;;;5077879;28;20715;-71
2022/02/03 14:43:48;;;;;;;4.03;3.38;;;9.50;99.90;;;;;;5077300;28;20256;-72
2022/02/03 14:46:16;;;;;;;3.05;2.85;;;9.50;99.90;;;;;;5076780;28;20265;-72
2022/02/03 14:48:45;;;;;;;2.10;2.00;;;9.50;99.90;;;;;;5075885;28;20333;-70
2022/02/03 14:51:16;;;;;;;1.67;1.58;;;9.50;99.90;;;;;;5076873;28;20200;-71
2022/02/03 14:59:03;;;;;;;1.88;1.63;;;9.30;99.90;;;;;;5081121;28;20196;-70
2022/02/03 15:01:33;;;;;;;1.95;1.55;;;9.30;99.90;;;;;;5086507;28;20641;-71
2022/02/03 15:04:05;;;;;;;1.85;1.40;;;9.20;99.90;;;;;;5086334;28;20260;-71
2022/02/03 15:06:41;;;;;;;1.30;1.20;;;9.20;99.90;;;;;;5083281;28;20275;-71
2022/02/03 15:09:47;;;;;;;2.45;1.15;;;9.20;99.90;;;;;;5083116;28;20230;-71
2022/02/03 15:12:22;;;;;;;1.45;1.35;;;9.20;99.90;;;;;;5083740;28;20325;-71
2022/02/03 15:14:49;;;;;;;1.20;1.10;;;9.10;99.90;;;;;;5082651;28;20276;-71
2022/02/03 15:17:15;;;;;;;1.30;1.20;;;9.10;99.90;;;;;;5082077;28;20200;-71
2022/02/03 15:19:42;;;;;;;4.82;1.20;;;9.10;99.90;;;;;;5080924;28;20196;-71
2022/02/03 15:22:08;;;;;;;1.08;1.08;;;9.10;99.90;;;;;;5081925;28;20204;-71
2022/02/03 15:24:35;;;;;;;1.77;1.50;;;8.90;99.90;;;;;;5078048;28;20560;-71
2022/02/03 15:27:03;;;;;;;2.10;1.05;;;8.90;99.90;;;;;;5083538;28;20211;-71
2022/02/03 15:29:30;;;;;;;2.95;1.30;;;8.90;99.90;;;;;;5082543;28;20659;-71
2022/02/03 15:31:56;;;;;;;1.35;1.25;;;8.80;99.90;;;;;;5081216;28;20211;-71
2022/02/03 15:34:23;;;;;;;1.65;1.17;;;8.80;99.90;;;;;;5079977;28;20679;-70
2022/02/03 15:36:53;;;;;;;1.42;1.33;;;8.80;99.90;;;;;;5079521;28;20698;-70
2022/02/03 15:39:24;;;;;;;1.20;1.08;;;8.70;99.90;;;;;;5080517;28;20279;-70
2022/02/03 15:41:53;;;;;;;1.63;1.25;;;8.70;99.90;;;;;;5080956;28;20177;-70
2022/02/03 15:44:21;;;;;;;1.35;1.20;;;8.70;99.90;;;;;;5080576;28;20200;-70
2022/02/03 15:47:00;;;;;;;1.30;1.20;;;8.70;99.90;;;;;;5078886;28;20294;-70
2022/02/03 16:03:17;;;;;;;1.20;1.10;;;8.60;99.90;;;;;;5078281;28;20188;-71
2022/02/03 16:18:57;;;;;;;1.60;1.40;;;8.50;99.90;;;;;;5079766;28;20211;-70
2022/02/03 16:21:32;;;;;;;1.02;0.98;;;8.50;99.90;;;;;;5079004;28;20252;-71
2022/02/03 16:54:23;;;;;;;4.32;3.80;;;8.40;99.90;;;;;;5054577;28;20234;-71
2022/02/03 16:56:56;;;;;;;6.55;3.70;;;8.40;99.90;;;;;;5070144;28;20203;-69
2022/02/03 16:59:23;;;;;;;10.13;3.83;;;8.40;99.90;;;;;;5073402;28;20227;-69
2022/02/03 17:01:50;;;;;;;6.20;5.32;;;8.40;99.90;;;;;;5074351;28;20675;-70
2022/02/03 17:04:19;;;;;;;4.15;3.85;;;8.40;99.90;;;;;;5073901;28;20196;-69
2022/02/03 17:06:47;;;;;;;3.47;3.17;;;8.40;99.90;;;;;;5074295;28;20219;-69
2022/02/03 17:09:14;;;;;;;2.22;2.13;;;8.40;99.90;;;;;;5074196;28;20199;-70
2022/02/03 17:11:41;;;;;;;5.28;2.50;;;8.30;99.90;;;;;;5074261;28;20588;-69
2022/02/03 17:14:07;;;;;;;2.10;2.00;;;8.30;99.90;;;;;;5074520;28;20608;-70
2022/02/03 17:16:35;;;;;;;1.70;1.60;;;8.30;99.90;;;;;;5074212;28;20553;-69
2022/02/03 17:19:02;;;;;;;7.18;3.00;;;8.30;99.90;;;;;;5074837;28;20200;-68
2022/02/03 17:21:30;;;;;;;3.08;2.20;;;8.30;99.90;;;;;;5073990;28;20204;-69
2022/02/03 17:23:57;;;;;;;2.42;2.00;;;8.20;99.90;;;;;;5074833;28;20651;-71
2022/02/03 17:26:42;;;;;;;3.15;2.20;;;8.20;99.90;;;;;;5074995;28;20225;-70
2022/02/03 18:10:00;;;;;;;1.83;1.73;;;8.00;99.90;;;;;;5074400;28;20600;-70
2022/02/03 18:18:39;;;;;;;2.00;1.90;;;8.00;99.90;;;;;;5074875;28;20195;-70
2022/02/03 18:50:55;;;;;;;2.45;2.25;;;7.90;99.90;;;;;;5077066;28;20215;-71
2022/02/03 18:53:32;;;;;;;2.45;2.25;;;7.90;99.90;;;;;;5075835;28;20483;-71
2022/02/03 18:58:50;;;;;;;2.55;2.20;;;7.90;99.90;;;;;;5077664;28;20542;-71
2022/02/03 19:28:33;;;;;;;2.63;2.42;;;8.00;99.90;;;;;;5077012;28;20211;-70
2022/02/03 20:04:15;;;;;;;4.32;2.88;;;8.00;99.90;;;;;;5075218;28;20191;-71
2022/02/03 20:12:16;;;;;;;2.67;2.47;;;7.90;99.90;;;;;;5075535;28;20180;-70
2022/02/03 20:14:43;;;;;;;3.45;3.25;;;7.90;99.90;;;;;;5076671;28;20200;-71
2022/02/03 20:17:11;;;;;;;2.90;2.70;;;7.80;99.90;;;;;;5075116;28;20254;-71
2022/02/03 20:19:38;;;;;;;2.40;2.30;;;7.90;99.90;;;;;;5075446;28;20196;-72
2022/02/03 20:22:05;;;;;;;2.72;2.53;;;7.90;99.90;;;;;;5075775;28;20196;-71
2022/02/03 20:24:31;;;;;;;3.50;3.30;;;7.90;99.90;;;;;;5074934;28;20652;-72
2022/02/03 20:26:58;;;;;;;5.45;4.63;;;7.90;99.90;;;;;;5076794;28;20683;-71
2022/02/03 20:29:25;;;;;;;3.70;3.40;;;7.90;99.90;;;;;;5077118;28;20208;-70
2022/02/03 20:31:51;;;;;;;7.18;6.63;;;7.90;99.90;;;;;;5076534;28;20188;-70
2022/02/03 20:34:18;;;;;;;5.53;5.03;;;7.90;99.90;;;;;;5075682;28;20218;-71
2022/02/03 20:36:45;;;;;;;5.38;4.88;;;7.90;99.90;;;;;;5076849;28;20227;-71
2022/02/03 20:39:12;;;;;;;4.53;4.05;;;7.90;99.90;;;;;;5076164;28;20263;-70
2022/02/03 20:41:38;;;;;;;4.80;4.40;;;7.90;99.90;;;;;;5076302;28;20287;-70
2022/02/03 20:44:05;;;;;;;5.68;4.10;;;7.90;99.90;;;;;;5076659;28;20196;-71
2022/02/03 20:46:32;;;;;;;3.70;3.40;;;7.90;99.90;;;;;;5079050;28;20203;-72
2022/02/03 20:48:58;;;;;;;4.07;3.78;;;7.90;99.90;;;;;;5077355;28;20294;-71
2022/02/03 20:51:25;;;;;;;4.18;3.88;;;7.90;99.90;;;;;;5078846;28;20206;-71
2022/02/03 20:53:52;;;;;;;3.65;3.40;;;8.00;99.90;;;;;;5061671;28;20196;-72
2022/02/03 20:56:20;;;;;;;4.05;3.75;;;8.00;99.90;;;;;;5079307;28;20275;-72
2022/02/03 20:58:48;;;;;;;4.82;4.22;;;8.00;99.90;;;;;;5083137;28;20207;-70
2022/02/03 21:01:21;;;;;;;3.72;3.42;;;8.00;99.90;;;;;;5086062;28;20200;-72
2022/02/03 21:03:49;;;;;;;7.82;3.35;;;7.90;99.90;;;;;;5085761;28;20181;-72
2022/02/03 21:06:17;;;;;;;3.28;3.08;;;8.00;99.90;;;;;;5084241;28;20223;-72
2022/02/03 21:08:47;;;;;;;3.10;2.90;;;7.90;99.90;;;;;;5082999;28;20199;-71
2022/02/03 21:11:18;;;;;;;4.07;3.67;;;7.90;99.90;;;;;;5082705;28;20210;-71
2022/02/03 21:13:44;;;;;;;5.30;3.70;;;8.00;99.90;;;;;;5084665;28;20234;-71
2022/02/03 21:16:14;;;;;;;3.50;3.30;;;8.00;99.90;;;;;;5081979;28;20307;-71
2022/02/03 21:18:43;;;;;;;3.38;3.17;;;7.90;99.90;;;;;;5078435;28;20283;-71
2022/02/03 21:21:11;;;;;;;3.67;3.42;;;7.90;99.90;;;;;;5081784;28;20287;-71
2022/02/03 21:23:37;;;;;;;3.90;3.60;;;7.90;99.90;;;;;;5085038;28;20535;-71
2022/02/03 21:26:08;;;;;;;3.10;2.90;;;7.80;99.90;;;;;;5083271;28;20287;-72
2022/02/03 21:28:38;;;;;;;3.95;3.40;;;7.80;99.90;;;;;;5081798;28;20200;-71
2022/02/03 21:31:06;;;;;;;2.92;2.72;;;7.80;99.90;;;;;;5083043;28;20230;-71
2022/02/03 21:33:46;;;;;;;3.50;3.30;;;7.80;99.90;;;;;;5083700;28;20683;-72
2022/02/03 21:36:13;;;;;;;3.40;3.20;;;7.80;99.90;;;;;;5084540;28;20212;-70
2022/02/03 21:38:42;;;;;;;3.28;3.08;;;7.80;99.90;;;;;;5084939;28;20202;-71
2022/02/03 21:41:10;;;;;;;3.53;3.33;;;7.80;99.90;;;;;;5083650;28;20208;-72
2022/02/03 21:43:37;;;;;;;4.95;3.50;;;7.70;99.90;;;;;;5080677;28;20207;-72
2022/02/03 21:46:08;;;;;;;3.75;3.45;;;7.80;99.90;;;;;;5081156;28;20291;-71
2022/02/03 21:48:35;;;;;;;4.50;3.75;;;7.80;99.90;;;;;;5077594;28;20200;-72
2022/02/03 21:51:03;;;;;;;3.25;3.05;;;7.80;99.90;;;;;;5079361;28;20200;-70
2022/02/03 21:53:32;;;;;;;5.65;3.90;;;7.80;99.90;;;;;;5081797;28;20724;-70
2022/02/03 21:55:59;;;;;;;4.05;3.75;;;7.70;99.90;;;;;;5083486;28;20224;-72
2022/02/03 21:58:26;;;;;;;4.55;4.00;;;7.70;99.90;;;;;;5082813;28;20563;-73
2022/02/03 22:00:54;;;;;;;4.45;4.07;;;7.70;99.90;;;;;;5083037;28;20231;-71
2022/02/03 22:03:24;;;;;;;4.20;3.90;;;7.70;99.90;;;;;;5082733;28;20200;-74
2022/02/03 22:05:51;;;;;;;4.22;3.83;;;7.70;99.90;;;;;;5083838;28;20310;-71
2022/02/03 22:08:17;;;;;;;4.50;3.20;;;7.70;99.90;;;;;;5084561;28;20196;-72
2022/02/03 22:10:44;;;;;;;4.10;3.65;;;7.60;99.90;;;;;;5087080;28;20640;-72
2022/02/03 22:13:10;;;;;;;4.47;4.05;;;7.60;99.90;;;;;;5087551;28;20200;-71
2022/02/03 22:15:37;;;;;;;4.10;3.78;;;7.60;99.90;;;;;;5086092;28;20306;-71
2022/02/03 22:18:10;;;;;;;4.07;3.78;;;7.60;99.90;;;;;;5084912;28;20203;-71
2022/02/03 22:20:42;;;;;;;4.22;4.03;;;7.60;99.90;;;;;;5087581;28;20549;-71
2022/02/03 22:44:09;;;;;;;4.72;4.20;;;7.50;99.90;;;;;;5085704;28;20267;-72
2022/02/03 22:49:07;;;;;;;4.25;3.85;;;7.50;99.90;;;;;;5085196;28;20200;-72
2022/02/03 22:51:35;;;;;;;4.53;3.90;;;7.50;99.90;;;;;;5085925;28;20204;-72
2022/02/03 22:54:06;;;;;;;5.45;3.75;;;7.50;99.90;;;;;;5085363;28;20204;-72
2022/02/03 22:56:33;;;;;;;5.10;4.70;;;7.50;99.90;;;;;;5085943;28;20625;-72
2022/02/03 23:01:32;;;;;;;5.20;4.70;;;7.40;99.90;;;;;;5084929;28;20188;-72
2022/02/03 23:03:58;;;;;;;7.15;5.88;;;7.40;99.90;;;;;;5083870;28;20200;-72
2022/02/03 23:06:25;;;;;;;9.52;5.63;;;7.40;99.90;;;;;;5082273;28;20219;-72
2022/02/03 23:17:05;;;;;;;5.45;4.95;;;7.40;99.90;;;;;;5079468;28;20208;-71
2022/02/03 23:20:01;;;;;;;6.78;4.55;;;7.40;99.90;;;;;;5080425;28;20203;-71
2022/02/03 23:22:27;;;;;;;6.18;5.57;;;7.40;99.90;;;;;;5085888;28;20177;-72
2022/02/03 23:24:56;;;;;;;5.88;5.38;;;7.40;99.90;;;;;;5083693;28;20255;-72
2022/02/03 23:30:02;;;;;;;5.50;5.00;;;7.40;99.90;;;;;;5087776;28;20188;-72
2022/02/03 23:32:30;;;;;;;5.72;5.18;;;7.40;99.90;;;;;;5085227;28;20216;-72
2022/02/03 23:35:20;;;;;;;5.53;4.82;;;7.30;99.90;;;;;;5082826;28;20200;-71
2022/02/03 23:37:48;;;;;;;6.15;5.65;;;7.30;99.90;;;;;;5081404;28;20704;-72
2022/02/03 23:40:25;;;;;;;6.13;5.53;;;7.30;99.90;;;;;;5081154;28;20557;-71
2022/02/03 23:46:12;;;;;;;5.45;4.95;;;7.30;99.90;;;;;;5084316;28;20184;-72
